DTA873 FQMA-FNLU
Flight info
| Callsign | DTA873 |
|---|---|
| Flight time | 3h 34m |
| Altitude | 36000 |
| Route | IMKAN UT433 ETMIT UP303 EPSAM/N0483F380 UP303 IBRIT UT941 BIGUL DCT D128N DCT D049L DCT FI23 |
| Aircraft | L101/H-SDE3FGHIR/S |
Departure
| Time | 2026-04-24 01:17 |
|---|---|
| Airport | Maputo Airport (FQMA) |
Arrival
| Time | 2026-04-24 04:51 |
|---|---|
| Airport | Quatro de Fevereiro International Airport (FNLU) |
| Time | Latitude | Longitude | Altitude | Speed | Heading |
|---|---|---|---|---|---|
| 2026-04-24 00:59 | -25.92284 | 32.57487 | 134 ft | 0 kts | 177° |
| 2026-04-24 01:06 | -25.92283 | 32.57486 | 134 ft | 2 kts | 177° |
| 2026-04-24 01:07 | -25.92257 | 32.57485 | 134 ft | 4 kts | 177° |
| 2026-04-24 01:07 | -25.92230 | 32.57484 | 135 ft | 4 kts | 176° |
| 2026-04-24 01:07 | -25.92210 | 32.57481 | 135 ft | 4 kts | 157° |
| 2026-04-24 01:07 | -25.92188 | 32.57467 | 135 ft | 2 kts | 150° |
| 2026-04-24 01:08 | -25.92187 | 32.57466 | 135 ft | 0 kts | 150° |
| 2026-04-24 01:10 | -25.92193 | 32.57474 | 135 ft | 2 kts | 127° |
| 2026-04-24 01:11 | -25.92193 | 32.57497 | 135 ft | 5 kts | 78° |
| 2026-04-24 01:11 | -25.92174 | 32.57543 | 135 ft | 8 kts | 48° |
| 2026-04-24 01:11 | -25.92134 | 32.57562 | 135 ft | 11 kts | 1° |
| 2026-04-24 01:11 | -25.92044 | 32.57528 | 134 ft | 16 kts | 328° |
| 2026-04-24 01:12 | -25.91947 | 32.57546 | 135 ft | 17 kts | 28° |
| 2026-04-24 01:12 | -25.91830 | 32.57618 | 135 ft | 21 kts | 29° |
| 2026-04-24 01:12 | -25.91687 | 32.57705 | 135 ft | 25 kts | 28° |
| 2026-04-24 01:12 | -25.91528 | 32.57802 | 136 ft | 27 kts | 28° |
| 2026-04-24 01:13 | -25.91356 | 32.57906 | 137 ft | 29 kts | 28° |
| 2026-04-24 01:13 | -25.91178 | 32.58016 | 138 ft | 30 kts | 29° |
| 2026-04-24 01:13 | -25.90994 | 32.58130 | 138 ft | 31 kts | 28° |
| 2026-04-24 01:13 | -25.90807 | 32.58243 | 139 ft | 28 kts | 29° |
| 2026-04-24 01:14 | -25.90631 | 32.58350 | 139 ft | 29 kts | 28° |
| 2026-04-24 01:14 | -25.90459 | 32.58455 | 140 ft | 28 kts | 29° |
| 2026-04-24 01:14 | -25.90314 | 32.58544 | 433 ft | 21 kts | 29° |
| 2026-04-24 01:14 | -25.90193 | 32.58619 | 142 ft | 20 kts | 28° |
| 2026-04-24 01:15 | -25.90067 | 32.58698 | 142 ft | 21 kts | 24° |
| 2026-04-24 01:15 | -25.89934 | 32.58778 | 143 ft | 23 kts | 29° |
| 2026-04-24 01:15 | -25.89789 | 32.58864 | 143 ft | 24 kts | 29° |
| 2026-04-24 01:15 | -25.89665 | 32.58936 | 143 ft | 15 kts | 11° |
| 2026-04-24 01:16 | -25.89605 | 32.58881 | 142 ft | 13 kts | 275° |
| 2026-04-24 01:16 | -25.89623 | 32.58774 | 141 ft | 15 kts | 242° |
| 2026-04-24 01:16 | -25.89710 | 32.58703 | 141 ft | 17 kts | 209° |
| 2026-04-24 01:16 | -25.89891 | 32.58592 | 141 ft | 58 kts | 209° |
| 2026-04-24 01:17 | -25.90515 | 32.58216 | 140 ft | 143 kts | 208° |
| 2026-04-24 01:17 | -25.91481 | 32.57627 | 861 ft | 164 kts | 208° |
| 2026-04-24 01:17 | -25.92460 | 32.56872 | 1850 ft | 186 kts | 222° |
| 2026-04-24 01:17 | -25.93014 | 32.55425 | 2560 ft | 233 kts | 258° |
| 2026-04-24 01:18 | -25.92793 | 32.53538 | 2787 ft | 265 kts | 286° |
| 2026-04-24 01:18 | -25.92025 | 32.51628 | 3209 ft | 282 kts | 294° |
| 2026-04-24 01:18 | -25.91149 | 32.49643 | 3838 ft | 289 kts | 293° |
| 2026-04-24 01:18 | -25.90332 | 32.47583 | 4528 ft | 294 kts | 291° |
| 2026-04-24 01:19 | -25.89548 | 32.45473 | 5245 ft | 297 kts | 291° |
| 2026-04-24 01:19 | -25.88759 | 32.43348 | 5969 ft | 299 kts | 292° |
| 2026-04-24 01:19 | -25.87955 | 32.41214 | 6708 ft | 300 kts | 293° |
| 2026-04-24 01:19 | -25.87145 | 32.39080 | 7415 ft | 299 kts | 293° |
| 2026-04-24 01:20 | -25.86337 | 32.36954 | 8183 ft | 298 kts | 293° |
| 2026-04-24 01:20 | -25.85534 | 32.34836 | 8946 ft | 297 kts | 293° |
| 2026-04-24 01:20 | -25.84738 | 32.32737 | 9762 ft | 293 kts | 294° |
| 2026-04-24 01:20 | -25.83946 | 32.30648 | 10458 ft | 295 kts | 294° |
| 2026-04-24 01:21 | -25.83134 | 32.28515 | 10869 ft | 307 kts | 294° |
| 2026-04-24 01:21 | -25.82273 | 32.26261 | 11032 ft | 327 kts | 294° |
| 2026-04-24 01:21 | -25.81361 | 32.23873 | 11163 ft | 345 kts | 294° |
| 2026-04-24 01:21 | -25.80405 | 32.21363 | 11299 ft | 361 kts | 294° |
| 2026-04-24 01:22 | -25.79410 | 32.18747 | 11434 ft | 374 kts | 294° |
| 2026-04-24 01:22 | -25.78375 | 32.16043 | 11571 ft | 387 kts | 294° |
| 2026-04-24 01:22 | -25.77310 | 32.13261 | 11782 ft | 396 kts | 294° |
| 2026-04-24 01:22 | -25.76227 | 32.10436 | 12158 ft | 399 kts | 294° |
| 2026-04-24 01:23 | -25.75148 | 32.07603 | 12670 ft | 398 kts | 293° |
| 2026-04-24 01:23 | -25.74357 | 32.04673 | 13277 ft | 397 kts | 280° |
| 2026-04-24 01:23 | -25.74363 | 32.01609 | 13776 ft | 400 kts | 263° |
| 2026-04-24 01:23 | -25.74968 | 31.98611 | 14394 ft | 397 kts | 257° |
| 2026-04-24 01:24 | -25.75623 | 31.95651 | 14977 ft | 394 kts | 259° |
| 2026-04-24 01:24 | -25.76144 | 31.92673 | 15481 ft | 394 kts | 262° |
| 2026-04-24 01:24 | -25.76597 | 31.89669 | 15930 ft | 396 kts | 262° |
| 2026-04-24 01:24 | -25.77057 | 31.86653 | 16352 ft | 398 kts | 262° |
| 2026-04-24 01:25 | -25.77533 | 31.83613 | 16774 ft | 402 kts | 262° |
| 2026-04-24 01:25 | -25.77827 | 31.80519 | 17143 ft | 405 kts | 270° |
| 2026-04-24 01:25 | -25.77539 | 31.77409 | 17403 ft | 408 kts | 284° |
| 2026-04-24 01:25 | -25.76593 | 31.74430 | 17772 ft | 411 kts | 295° |
| 2026-04-24 01:26 | -25.75263 | 31.71625 | 18311 ft | 410 kts | 300° |
| 2026-04-24 01:26 | -25.73823 | 31.68948 | 18848 ft | 409 kts | 301° |
| 2026-04-24 01:26 | -25.72315 | 31.66224 | 19354 ft | 409 kts | 301° |
| 2026-04-24 01:26 | -25.70802 | 31.63544 | 19830 ft | 411 kts | 302° |
| 2026-04-24 01:27 | -25.69249 | 31.60882 | 20272 ft | 413 kts | 303° |
| 2026-04-24 01:27 | -25.67650 | 31.58231 | 20709 ft | 415 kts | 304° |
| 2026-04-24 01:27 | -25.66016 | 31.55577 | 21119 ft | 418 kts | 304° |
| 2026-04-24 01:27 | -25.64362 | 31.52911 | 21535 ft | 421 kts | 304° |
| 2026-04-24 01:28 | -25.62718 | 31.50268 | 22026 ft | 423 kts | 304° |
| 2026-04-24 01:28 | -25.61025 | 31.47548 | 22565 ft | 423 kts | 304° |
| 2026-04-24 01:28 | -25.59373 | 31.44900 | 23084 ft | 424 kts | 304° |
| 2026-04-24 01:28 | -25.57686 | 31.42204 | 23558 ft | 427 kts | 304° |
| 2026-04-24 01:29 | -25.55987 | 31.39492 | 24000 ft | 430 kts | 304° |
| 2026-04-24 01:29 | -25.54275 | 31.36762 | 24383 ft | 433 kts | 304° |
| 2026-04-24 01:29 | -25.52554 | 31.34020 | 24805 ft | 434 kts | 304° |
| 2026-04-24 01:29 | -25.50830 | 31.31274 | 25307 ft | 434 kts | 304° |
| 2026-04-24 01:30 | -25.49105 | 31.28526 | 25759 ft | 436 kts | 303° |
| 2026-04-24 01:30 | -25.47360 | 31.25747 | 25941 ft | 444 kts | 303° |
| 2026-04-24 01:30 | -25.45579 | 31.22915 | 26091 ft | 453 kts | 304° |
| 2026-04-24 01:30 | -25.43761 | 31.20027 | 26220 ft | 461 kts | 304° |
| 2026-04-24 01:31 | -25.41916 | 31.17101 | 26421 ft | 467 kts | 304° |
| 2026-04-24 01:31 | -25.40051 | 31.14143 | 26718 ft | 469 kts | 304° |
| 2026-04-24 01:31 | -25.38187 | 31.11179 | 27139 ft | 469 kts | 303° |
| 2026-04-24 01:31 | -25.36343 | 31.08218 | 27673 ft | 466 kts | 303° |
| 2026-04-24 01:32 | -25.34517 | 31.05276 | 28314 ft | 461 kts | 303° |
| 2026-04-24 01:32 | -25.32717 | 31.02380 | 29106 ft | 453 kts | 303° |
| 2026-04-24 01:32 | -25.30950 | 30.99533 | 29958 ft | 444 kts | 303° |
| 2026-04-24 01:32 | -25.29223 | 30.96742 | 30774 ft | 436 kts | 303° |
| 2026-04-24 01:33 | -25.27533 | 30.94005 | 31576 ft | 427 kts | 303° |
| 2026-04-24 01:33 | -25.25873 | 30.91314 | 32287 ft | 420 kts | 303° |
| 2026-04-24 01:33 | -25.24237 | 30.88664 | 32928 ft | 415 kts | 303° |
| 2026-04-24 01:33 | -25.22616 | 30.86041 | 33505 ft | 412 kts | 303° |
| 2026-04-24 01:34 | -25.21005 | 30.83434 | 34042 ft | 409 kts | 303° |
| 2026-04-24 01:34 | -25.19403 | 30.80844 | 34505 ft | 408 kts | 303° |
| 2026-04-24 01:34 | -25.17803 | 30.78260 | 34930 ft | 407 kts | 303° |
| 2026-04-24 01:34 | -25.16209 | 30.75684 | 35300 ft | 406 kts | 303° |
| 2026-04-24 01:35 | -25.14613 | 30.73107 | 35684 ft | 407 kts | 303° |
| 2026-04-24 01:35 | -25.13013 | 30.70526 | 36022 ft | 408 kts | 303° |
| 2026-04-24 01:35 | -25.11428 | 30.67970 | 36197 ft | 393 kts | 303° |
| 2026-04-24 01:36 | -25.08349 | 30.63007 | 36316 ft | 403 kts | 302° |
| 2026-04-24 01:36 | -25.06734 | 30.60397 | 36324 ft | 420 kts | 302° |
| 2026-04-24 01:36 | -25.05077 | 30.57728 | 36324 ft | 422 kts | 303° |
| 2026-04-24 01:37 | -25.01772 | 30.52421 | 36320 ft | 419 kts | 303° |
| 2026-04-24 01:37 | -24.98471 | 30.47122 | 36312 ft | 419 kts | 303° |
| 2026-04-24 01:38 | -24.95169 | 30.41826 | 36316 ft | 419 kts | 303° |
| 2026-04-24 01:38 | -24.91868 | 30.36536 | 36309 ft | 419 kts | 302° |
| 2026-04-24 01:39 | -24.88562 | 30.31246 | 36307 ft | 420 kts | 302° |
| 2026-04-24 01:39 | -24.85249 | 30.25951 | 36298 ft | 420 kts | 302° |
| 2026-04-24 01:40 | -24.81958 | 30.20694 | 36297 ft | 420 kts | 303° |
| 2026-04-24 01:40 | -24.78641 | 30.15403 | 36298 ft | 420 kts | 303° |
| 2026-04-24 01:41 | -24.75300 | 30.10081 | 36278 ft | 420 kts | 302° |
| 2026-04-24 01:41 | -24.72001 | 30.04819 | 36287 ft | 421 kts | 302° |
| 2026-04-24 01:42 | -24.68676 | 29.99517 | 36292 ft | 421 kts | 302° |
| 2026-04-24 01:42 | -24.65359 | 29.94217 | 36283 ft | 421 kts | 302° |
| 2026-04-24 01:43 | -24.62055 | 29.88908 | 36278 ft | 421 kts | 302° |
| 2026-04-24 01:43 | -24.58755 | 29.83603 | 36270 ft | 421 kts | 302° |
| 2026-04-24 01:44 | -24.55449 | 29.78295 | 36259 ft | 421 kts | 302° |
| 2026-04-24 01:44 | -24.52145 | 29.72993 | 36263 ft | 421 kts | 302° |
| 2026-04-24 01:45 | -24.48840 | 29.67689 | 36266 ft | 421 kts | 302° |
| 2026-04-24 01:45 | -24.45542 | 29.62381 | 36265 ft | 421 kts | 302° |
| 2026-04-24 01:46 | -24.42249 | 29.57069 | 36263 ft | 421 kts | 302° |
| 2026-04-24 01:46 | -24.38959 | 29.51761 | 36271 ft | 421 kts | 302° |
| 2026-04-24 01:47 | -24.35665 | 29.46449 | 36234 ft | 421 kts | 302° |
| 2026-04-24 01:47 | -24.32374 | 29.41146 | 36252 ft | 420 kts | 302° |
| 2026-04-24 01:48 | -24.29082 | 29.35847 | 36257 ft | 420 kts | 302° |
| 2026-04-24 01:48 | -24.25790 | 29.30554 | 36257 ft | 420 kts | 302° |
| 2026-04-24 01:49 | -24.22497 | 29.25265 | 36256 ft | 420 kts | 302° |
| 2026-04-24 01:49 | -24.19194 | 29.19968 | 36255 ft | 422 kts | 302° |
| 2026-04-24 01:50 | -24.15884 | 29.14661 | 36254 ft | 422 kts | 302° |
| 2026-04-24 01:50 | -24.12569 | 29.09354 | 36237 ft | 422 kts | 301° |
| 2026-04-24 01:51 | -24.09256 | 29.04054 | 36247 ft | 422 kts | 301° |
| 2026-04-24 01:51 | -24.05946 | 28.98749 | 36234 ft | 422 kts | 301° |
| 2026-04-24 01:52 | -24.02639 | 28.93448 | 36244 ft | 422 kts | 301° |
| 2026-04-24 01:52 | -23.99357 | 28.88168 | 36233 ft | 422 kts | 301° |
| 2026-04-24 01:53 | -23.96055 | 28.82855 | 36235 ft | 423 kts | 301° |
| 2026-04-24 01:53 | -23.92751 | 28.77542 | 36210 ft | 422 kts | 301° |
| 2026-04-24 01:54 | -23.89449 | 28.72238 | 36222 ft | 422 kts | 301° |
| 2026-04-24 01:54 | -23.86149 | 28.66941 | 36229 ft | 422 kts | 301° |
| 2026-04-24 01:55 | -23.82846 | 28.61645 | 36223 ft | 422 kts | 301° |
| 2026-04-24 01:55 | -23.79547 | 28.56354 | 36218 ft | 421 kts | 301° |
| 2026-04-24 01:56 | -23.76254 | 28.51062 | 36220 ft | 421 kts | 301° |
| 2026-04-24 01:56 | -23.72966 | 28.45775 | 36206 ft | 421 kts | 301° |
| 2026-04-24 01:57 | -23.69676 | 28.40487 | 36217 ft | 420 kts | 301° |
| 2026-04-24 01:57 | -23.66393 | 28.35215 | 36226 ft | 420 kts | 300° |
| 2026-04-24 01:58 | -23.63101 | 28.29932 | 36211 ft | 421 kts | 301° |
| 2026-04-24 01:58 | -23.60358 | 28.25538 | 36204 ft | 421 kts | 301° |
| 2026-04-24 01:59 | -23.57062 | 28.20255 | 36214 ft | 422 kts | 300° |
| 2026-04-24 01:59 | -23.53768 | 28.14965 | 36206 ft | 422 kts | 300° |
| 2026-04-24 02:00 | -23.50479 | 28.09681 | 36195 ft | 421 kts | 300° |
| 2026-04-24 02:00 | -23.47201 | 28.04399 | 36214 ft | 420 kts | 300° |
| 2026-04-24 02:01 | -23.43931 | 27.99122 | 36211 ft | 421 kts | 300° |
| 2026-04-24 02:01 | -23.40654 | 27.93842 | 36206 ft | 421 kts | 300° |
| 2026-04-24 02:02 | -23.37377 | 27.88566 | 36205 ft | 421 kts | 300° |
| 2026-04-24 02:02 | -23.34096 | 27.83290 | 36201 ft | 421 kts | 300° |
| 2026-04-24 02:03 | -23.29171 | 27.75380 | 36175 ft | 421 kts | 300° |
| 2026-04-24 02:03 | -23.25910 | 27.70148 | 36196 ft | 421 kts | 300° |
| 2026-04-24 02:04 | -23.22624 | 27.64876 | 36202 ft | 421 kts | 299° |
| 2026-04-24 02:04 | -23.19215 | 27.59640 | 36202 ft | 423 kts | 303° |
| 2026-04-24 02:05 | -23.15563 | 27.54667 | 36203 ft | 424 kts | 303° |
| 2026-04-24 02:05 | -23.11922 | 27.49639 | 36204 ft | 423 kts | 303° |
| 2026-04-24 02:06 | -23.08278 | 27.44609 | 36213 ft | 424 kts | 303° |
| 2026-04-24 02:06 | -23.04632 | 27.39580 | 36211 ft | 424 kts | 303° |
| 2026-04-24 02:07 | -23.00977 | 27.34540 | 36208 ft | 425 kts | 303° |
| 2026-04-24 02:07 | -22.97320 | 27.29501 | 36207 ft | 425 kts | 303° |
| 2026-04-24 02:08 | -22.93662 | 27.24462 | 36206 ft | 425 kts | 303° |
| 2026-04-24 02:08 | -22.90006 | 27.19427 | 36201 ft | 425 kts | 303° |
| 2026-04-24 02:09 | -22.86346 | 27.14390 | 36208 ft | 425 kts | 303° |
| 2026-04-24 02:09 | -22.82688 | 27.09355 | 36192 ft | 425 kts | 303° |
| 2026-04-24 02:10 | -22.79030 | 27.04320 | 36207 ft | 425 kts | 303° |
| 2026-04-24 02:10 | -22.75341 | 26.99302 | 36189 ft | 426 kts | 304° |
| 2026-04-24 02:11 | -22.71468 | 26.94428 | 36208 ft | 426 kts | 304° |
| 2026-04-24 02:11 | -22.67804 | 26.89402 | 36191 ft | 425 kts | 302° |
| 2026-04-24 02:12 | -22.64270 | 26.84284 | 36201 ft | 424 kts | 301° |
| 2026-04-24 02:12 | -22.60748 | 26.79167 | 36194 ft | 424 kts | 301° |
| 2026-04-24 02:13 | -22.57158 | 26.74087 | 36200 ft | 426 kts | 302° |
| 2026-04-24 02:13 | -22.53508 | 26.69039 | 36200 ft | 426 kts | 302° |
| 2026-04-24 02:14 | -22.49899 | 26.64015 | 36189 ft | 426 kts | 302° |
| 2026-04-24 02:14 | -22.46260 | 26.58957 | 36191 ft | 426 kts | 302° |
| 2026-04-24 02:15 | -22.42619 | 26.53906 | 36194 ft | 426 kts | 302° |
| 2026-04-24 02:15 | -22.38981 | 26.48862 | 36188 ft | 425 kts | 302° |
| 2026-04-24 02:16 | -22.35284 | 26.43858 | 36169 ft | 427 kts | 304° |
| 2026-04-24 02:16 | -22.31470 | 26.38919 | 36180 ft | 428 kts | 304° |
| 2026-04-24 02:17 | -22.27676 | 26.33965 | 36178 ft | 428 kts | 304° |
| 2026-04-24 02:17 | -22.23877 | 26.29015 | 36175 ft | 428 kts | 304° |
| 2026-04-24 02:18 | -22.20071 | 26.24069 | 36180 ft | 428 kts | 304° |
| 2026-04-24 02:18 | -22.16269 | 26.19134 | 36170 ft | 427 kts | 304° |
| 2026-04-24 02:19 | -22.12470 | 26.14205 | 36153 ft | 427 kts | 304° |
| 2026-04-24 02:19 | -22.08665 | 26.09272 | 36161 ft | 428 kts | 304° |
| 2026-04-24 02:20 | -22.04852 | 26.04335 | 36162 ft | 428 kts | 304° |
| 2026-04-24 02:20 | -22.01036 | 25.99399 | 36156 ft | 428 kts | 304° |
| 2026-04-24 02:21 | -21.97220 | 25.94468 | 36165 ft | 428 kts | 304° |
| 2026-04-24 02:21 | -21.93406 | 25.89543 | 36159 ft | 428 kts | 304° |
| 2026-04-24 02:22 | -21.89591 | 25.84622 | 36119 ft | 428 kts | 304° |
| 2026-04-24 02:22 | -21.85773 | 25.79701 | 36141 ft | 429 kts | 304° |
| 2026-04-24 02:23 | -21.81942 | 25.74768 | 36147 ft | 430 kts | 304° |
| 2026-04-24 02:23 | -21.78108 | 25.69837 | 36146 ft | 430 kts | 304° |
| 2026-04-24 02:24 | -21.74270 | 25.64905 | 36142 ft | 430 kts | 304° |
| 2026-04-24 02:24 | -21.70434 | 25.59979 | 36148 ft | 429 kts | 304° |
| 2026-04-24 02:25 | -21.66604 | 25.55067 | 36138 ft | 428 kts | 304° |
| 2026-04-24 02:25 | -21.62800 | 25.50189 | 36120 ft | 429 kts | 304° |
| 2026-04-24 02:26 | -21.58974 | 25.45249 | 36140 ft | 430 kts | 303° |
| 2026-04-24 02:26 | -21.55175 | 25.40280 | 36133 ft | 430 kts | 303° |
| 2026-04-24 02:27 | -21.51383 | 25.35306 | 36140 ft | 430 kts | 303° |
| 2026-04-24 02:27 | -21.47602 | 25.30332 | 36140 ft | 430 kts | 303° |
| 2026-04-24 02:28 | -21.43822 | 25.25359 | 36115 ft | 430 kts | 303° |
| 2026-04-24 02:28 | -21.40043 | 25.20390 | 36117 ft | 429 kts | 303° |
| 2026-04-24 02:29 | -21.36262 | 25.15422 | 36125 ft | 431 kts | 303° |
| 2026-04-24 02:29 | -21.32468 | 25.10441 | 36120 ft | 431 kts | 303° |
| 2026-04-24 02:30 | -21.28658 | 25.05474 | 36122 ft | 431 kts | 303° |
| 2026-04-24 02:30 | -21.24853 | 25.00500 | 36119 ft | 431 kts | 303° |
| 2026-04-24 02:31 | -21.21057 | 24.95533 | 36114 ft | 431 kts | 303° |
| 2026-04-24 02:31 | -21.17259 | 24.90569 | 36114 ft | 430 kts | 303° |
| 2026-04-24 02:32 | -21.13463 | 24.85610 | 36098 ft | 431 kts | 303° |
| 2026-04-24 02:32 | -21.09651 | 24.80636 | 36107 ft | 432 kts | 303° |
| 2026-04-24 02:33 | -21.05833 | 24.75659 | 36110 ft | 432 kts | 303° |
| 2026-04-24 02:33 | -21.02015 | 24.70686 | 36105 ft | 432 kts | 303° |
| 2026-04-24 02:34 | -20.98195 | 24.65715 | 36102 ft | 432 kts | 303° |
| 2026-04-24 02:34 | -20.94372 | 24.60744 | 36103 ft | 433 kts | 303° |
| 2026-04-24 02:35 | -20.90548 | 24.55776 | 36071 ft | 432 kts | 303° |
| 2026-04-24 02:35 | -20.86715 | 24.50799 | 36099 ft | 435 kts | 303° |
| 2026-04-24 02:36 | -20.82853 | 24.45790 | 36102 ft | 437 kts | 303° |
| 2026-04-24 02:36 | -20.78986 | 24.40782 | 36102 ft | 437 kts | 303° |
| 2026-04-24 02:37 | -20.75119 | 24.35776 | 36099 ft | 437 kts | 304° |
| 2026-04-24 02:37 | -20.71250 | 24.30772 | 36100 ft | 437 kts | 304° |
| 2026-04-24 02:38 | -20.67378 | 24.25769 | 36097 ft | 437 kts | 304° |
| 2026-04-24 02:38 | -20.63506 | 24.20769 | 36080 ft | 437 kts | 304° |
| 2026-04-24 02:39 | -20.59613 | 24.15746 | 36092 ft | 440 kts | 304° |
| 2026-04-24 02:39 | -20.55709 | 24.10714 | 36095 ft | 440 kts | 304° |
| 2026-04-24 02:40 | -20.51799 | 24.05680 | 36097 ft | 440 kts | 304° |
| 2026-04-24 02:40 | -20.47919 | 24.00689 | 36093 ft | 440 kts | 304° |
| 2026-04-24 02:41 | -20.43983 | 23.95690 | 36086 ft | 440 kts | 304° |
| 2026-04-24 02:41 | -20.40025 | 23.90718 | 36087 ft | 440 kts | 304° |
| 2026-04-24 02:42 | -20.36084 | 23.85726 | 36089 ft | 440 kts | 304° |
| 2026-04-24 02:42 | -20.32147 | 23.80733 | 36086 ft | 440 kts | 304° |
| 2026-04-24 02:43 | -20.28209 | 23.75744 | 36087 ft | 440 kts | 304° |
| 2026-04-24 02:43 | -20.24273 | 23.70759 | 36090 ft | 439 kts | 304° |
| 2026-04-24 02:44 | -20.20339 | 23.65781 | 36088 ft | 439 kts | 304° |
| 2026-04-24 02:44 | -20.16407 | 23.60810 | 36086 ft | 439 kts | 304° |
| 2026-04-24 02:45 | -20.13139 | 23.56681 | 36061 ft | 439 kts | 304° |
| 2026-04-24 02:45 | -20.09195 | 23.51700 | 36075 ft | 441 kts | 304° |
| 2026-04-24 02:46 | -20.05234 | 23.46705 | 36080 ft | 442 kts | 304° |
| 2026-04-24 02:46 | -20.01266 | 23.41708 | 36085 ft | 442 kts | 305° |
| 2026-04-24 02:47 | -19.96778 | 23.37163 | 36076 ft | 450 kts | 314° |
| 2026-04-24 02:47 | -19.91967 | 23.32912 | 36076 ft | 449 kts | 313° |
| 2026-04-24 02:48 | -19.87225 | 23.28590 | 36073 ft | 449 kts | 313° |
| 2026-04-24 02:48 | -19.82418 | 23.24323 | 36066 ft | 452 kts | 314° |
| 2026-04-24 02:49 | -19.77574 | 23.20060 | 36068 ft | 453 kts | 314° |
| 2026-04-24 02:49 | -19.72724 | 23.15796 | 36070 ft | 453 kts | 314° |
| 2026-04-24 02:50 | -19.67867 | 23.11532 | 36069 ft | 453 kts | 314° |
| 2026-04-24 02:50 | -19.63009 | 23.07273 | 36065 ft | 453 kts | 314° |
| 2026-04-24 02:51 | -19.58160 | 23.03024 | 36033 ft | 452 kts | 314° |
| 2026-04-24 02:51 | -19.53333 | 22.98795 | 36057 ft | 454 kts | 314° |
| 2026-04-24 02:52 | -19.48452 | 22.94527 | 36062 ft | 455 kts | 314° |
| 2026-04-24 02:52 | -19.43564 | 22.90257 | 36057 ft | 455 kts | 314° |
| 2026-04-24 02:53 | -19.38675 | 22.85988 | 36059 ft | 455 kts | 314° |
| 2026-04-24 02:53 | -19.33785 | 22.81720 | 36057 ft | 455 kts | 314° |
| 2026-04-24 02:54 | -19.28896 | 22.77457 | 36048 ft | 456 kts | 314° |
| 2026-04-24 02:54 | -19.23993 | 22.73185 | 36055 ft | 457 kts | 314° |
| 2026-04-24 02:55 | -19.19064 | 22.68924 | 36050 ft | 458 kts | 315° |
| 2026-04-24 02:55 | -19.14124 | 22.64675 | 36050 ft | 458 kts | 314° |
| 2026-04-24 02:56 | -19.09197 | 22.60415 | 36052 ft | 457 kts | 314° |
| 2026-04-24 02:56 | -19.04271 | 22.56157 | 36048 ft | 458 kts | 314° |
| 2026-04-24 02:57 | -18.99341 | 22.51899 | 36034 ft | 458 kts | 315° |
| 2026-04-24 02:57 | -18.94383 | 22.47647 | 36054 ft | 460 kts | 316° |
| 2026-04-24 02:58 | -18.89360 | 22.43464 | 36038 ft | 459 kts | 314° |
| 2026-04-24 02:58 | -18.84485 | 22.39119 | 36047 ft | 459 kts | 314° |
| 2026-04-24 02:59 | -18.79568 | 22.34823 | 36040 ft | 459 kts | 315° |
| 2026-04-24 02:59 | -18.74623 | 22.30551 | 36039 ft | 459 kts | 315° |
| 2026-04-24 03:00 | -18.69680 | 22.26277 | 36043 ft | 460 kts | 315° |
| 2026-04-24 03:00 | -18.64715 | 22.21993 | 36045 ft | 461 kts | 315° |
| 2026-04-24 03:01 | -18.59782 | 22.17741 | 36048 ft | 461 kts | 315° |
| 2026-04-24 03:01 | -18.54811 | 22.13459 | 36041 ft | 461 kts | 315° |
| 2026-04-24 03:02 | -18.49841 | 22.09181 | 36042 ft | 462 kts | 315° |
| 2026-04-24 03:02 | -18.44863 | 22.04899 | 36023 ft | 462 kts | 315° |
| 2026-04-24 03:03 | -18.39886 | 22.00620 | 36038 ft | 463 kts | 315° |
| 2026-04-24 03:03 | -18.34893 | 21.96334 | 36034 ft | 463 kts | 315° |
| 2026-04-24 03:04 | -18.29903 | 21.92052 | 36044 ft | 463 kts | 315° |
| 2026-04-24 03:04 | -18.24908 | 21.87769 | 36048 ft | 463 kts | 315° |
| 2026-04-24 03:05 | -18.19913 | 21.83489 | 36036 ft | 463 kts | 315° |
| 2026-04-24 03:05 | -18.14916 | 21.79210 | 36032 ft | 463 kts | 316° |
| 2026-04-24 03:06 | -18.09914 | 21.74930 | 36036 ft | 464 kts | 316° |
| 2026-04-24 03:06 | -18.04885 | 21.70661 | 36040 ft | 465 kts | 316° |
| 2026-04-24 03:07 | -17.99877 | 21.66371 | 36038 ft | 463 kts | 313° |
| 2026-04-24 03:07 | -17.95156 | 21.61790 | 36036 ft | 462 kts | 312° |
| 2026-04-24 03:08 | -17.88103 | 21.54955 | 36032 ft | 462 kts | 312° |
| 2026-04-24 03:09 | -17.83382 | 21.50371 | 36023 ft | 463 kts | 312° |
| 2026-04-24 03:09 | -17.78657 | 21.45774 | 36030 ft | 464 kts | 312° |
| 2026-04-24 03:10 | -17.73926 | 21.41175 | 36028 ft | 464 kts | 312° |
| 2026-04-24 03:10 | -17.69194 | 21.36579 | 36030 ft | 464 kts | 312° |
| 2026-04-24 03:11 | -17.64460 | 21.31983 | 36031 ft | 464 kts | 312° |
| 2026-04-24 03:11 | -17.59727 | 21.27391 | 36026 ft | 464 kts | 312° |
| 2026-04-24 03:12 | -17.54990 | 21.22800 | 36027 ft | 464 kts | 312° |
| 2026-04-24 03:12 | -17.50256 | 21.18213 | 36024 ft | 464 kts | 312° |
| 2026-04-24 03:13 | -17.45517 | 21.13626 | 36028 ft | 464 kts | 312° |
| 2026-04-24 03:13 | -17.40778 | 21.09042 | 36027 ft | 464 kts | 312° |
| 2026-04-24 03:14 | -17.36039 | 21.04462 | 36028 ft | 464 kts | 312° |
| 2026-04-24 03:14 | -17.31300 | 20.99884 | 36027 ft | 464 kts | 312° |
| 2026-04-24 03:15 | -17.26558 | 20.95308 | 36013 ft | 464 kts | 312° |
| 2026-04-24 03:15 | -17.21803 | 20.90722 | 36020 ft | 465 kts | 312° |
| 2026-04-24 03:16 | -17.17048 | 20.86140 | 36019 ft | 465 kts | 313° |
| 2026-04-24 03:16 | -17.12290 | 20.81558 | 36021 ft | 465 kts | 313° |
| 2026-04-24 03:17 | -17.07559 | 20.77006 | 36015 ft | 465 kts | 313° |
| 2026-04-24 03:17 | -17.02802 | 20.72432 | 36018 ft | 465 kts | 313° |
| 2026-04-24 03:18 | -16.98039 | 20.67855 | 36008 ft | 465 kts | 313° |
| 2026-04-24 03:18 | -16.93267 | 20.63272 | 36015 ft | 467 kts | 313° |
| 2026-04-24 03:19 | -16.88485 | 20.58685 | 36016 ft | 467 kts | 313° |
| 2026-04-24 03:19 | -16.83700 | 20.54097 | 36013 ft | 467 kts | 313° |
| 2026-04-24 03:20 | -16.78912 | 20.49509 | 36015 ft | 467 kts | 313° |
| 2026-04-24 03:20 | -16.74123 | 20.44925 | 36017 ft | 467 kts | 313° |
| 2026-04-24 03:21 | -16.69338 | 20.40347 | 36005 ft | 467 kts | 313° |
| 2026-04-24 03:21 | -16.64550 | 20.35768 | 36011 ft | 468 kts | 313° |
| 2026-04-24 03:22 | -16.59746 | 20.31179 | 36015 ft | 468 kts | 313° |
| 2026-04-24 03:22 | -16.54941 | 20.26592 | 36008 ft | 468 kts | 313° |
| 2026-04-24 03:23 | -16.50135 | 20.22007 | 36010 ft | 468 kts | 313° |
| 2026-04-24 03:23 | -16.45327 | 20.17424 | 36009 ft | 468 kts | 313° |
| 2026-04-24 03:24 | -16.40518 | 20.12842 | 36007 ft | 468 kts | 313° |
| 2026-04-24 03:24 | -16.35708 | 20.08262 | 36023 ft | 470 kts | 314° |
| 2026-04-24 03:25 | -16.30911 | 20.03698 | 36018 ft | 471 kts | 314° |
| 2026-04-24 03:25 | -16.26045 | 19.99073 | 36019 ft | 470 kts | 314° |
| 2026-04-24 03:26 | -16.21243 | 19.94512 | 36003 ft | 471 kts | 314° |
| 2026-04-24 03:26 | -16.16408 | 19.89922 | 36012 ft | 470 kts | 314° |
| 2026-04-24 03:27 | -16.11571 | 19.85332 | 36000 ft | 470 kts | 314° |
| 2026-04-24 03:27 | -16.06734 | 19.80747 | 36009 ft | 471 kts | 314° |
| 2026-04-24 03:28 | -16.01880 | 19.76147 | 36016 ft | 473 kts | 314° |
| 2026-04-24 03:28 | -15.97013 | 19.71541 | 36006 ft | 473 kts | 314° |
| 2026-04-24 03:29 | -15.92147 | 19.66937 | 36001 ft | 473 kts | 314° |
| 2026-04-24 03:29 | -15.87280 | 19.62337 | 36004 ft | 473 kts | 314° |
| 2026-04-24 03:30 | -15.82413 | 19.57738 | 36005 ft | 473 kts | 314° |
| 2026-04-24 03:30 | -15.77547 | 19.53143 | 35998 ft | 473 kts | 314° |
| 2026-04-24 03:31 | -15.72662 | 19.48534 | 36005 ft | 475 kts | 314° |
| 2026-04-24 03:31 | -15.67762 | 19.43914 | 36003 ft | 476 kts | 314° |
| 2026-04-24 03:32 | -15.62861 | 19.39297 | 36002 ft | 476 kts | 314° |
| 2026-04-24 03:32 | -15.58788 | 19.35461 | 35999 ft | 476 kts | 314° |
| 2026-04-24 03:33 | -15.54345 | 19.31281 | 36004 ft | 476 kts | 314° |
| 2026-04-24 03:33 | -15.49435 | 19.26663 | 36001 ft | 476 kts | 314° |
| 2026-04-24 03:34 | -15.46987 | 19.24362 | 35998 ft | 476 kts | 315° |
| 2026-04-24 03:35 | -15.45096 | 19.22586 | 36004 ft | 479 kts | 315° |
| 2026-04-24 03:35 | -15.40141 | 19.17936 | 36003 ft | 479 kts | 315° |
| 2026-04-24 03:36 | -15.35206 | 19.13301 | 36001 ft | 478 kts | 315° |
| 2026-04-24 03:36 | -15.30277 | 19.08676 | 36007 ft | 478 kts | 315° |
| 2026-04-24 03:37 | -15.25347 | 19.04055 | 36007 ft | 478 kts | 315° |
| 2026-04-24 03:37 | -15.20416 | 18.99435 | 36004 ft | 478 kts | 315° |
| 2026-04-24 03:38 | -15.15477 | 18.94811 | 35998 ft | 478 kts | 315° |
| 2026-04-24 03:38 | -15.10533 | 18.90185 | 36004 ft | 480 kts | 315° |
| 2026-04-24 03:39 | -15.05602 | 18.85574 | 36005 ft | 481 kts | 315° |
| 2026-04-24 03:39 | -15.00638 | 18.80937 | 36004 ft | 480 kts | 315° |
| 2026-04-24 03:40 | -14.95681 | 18.76307 | 36004 ft | 480 kts | 315° |
| 2026-04-24 03:40 | -14.90715 | 18.71674 | 36003 ft | 480 kts | 315° |
| 2026-04-24 03:41 | -14.85746 | 18.67040 | 36007 ft | 481 kts | 315° |
| 2026-04-24 03:41 | -14.80774 | 18.62407 | 36004 ft | 482 kts | 315° |
| 2026-04-24 03:42 | -14.75785 | 18.57761 | 36007 ft | 483 kts | 315° |
| 2026-04-24 03:42 | -14.70794 | 18.53115 | 36007 ft | 483 kts | 315° |
| 2026-04-24 03:43 | -14.65804 | 18.48474 | 36011 ft | 483 kts | 315° |
| 2026-04-24 03:43 | -14.60811 | 18.43834 | 36011 ft | 482 kts | 315° |
| 2026-04-24 03:44 | -14.55822 | 18.39199 | 36009 ft | 482 kts | 315° |
| 2026-04-24 03:44 | -14.50834 | 18.34569 | 36010 ft | 482 kts | 315° |
| 2026-04-24 03:45 | -14.45873 | 18.29966 | 36007 ft | 482 kts | 315° |
| 2026-04-24 03:45 | -14.40883 | 18.25340 | 36007 ft | 482 kts | 315° |
| 2026-04-24 03:46 | -14.35888 | 18.20712 | 36009 ft | 482 kts | 315° |
| 2026-04-24 03:46 | -14.30895 | 18.16089 | 36010 ft | 482 kts | 315° |
| 2026-04-24 03:47 | -14.25902 | 18.11469 | 36007 ft | 482 kts | 315° |
| 2026-04-24 03:47 | -14.20900 | 18.06843 | 36001 ft | 483 kts | 315° |
| 2026-04-24 03:48 | -14.15920 | 18.02239 | 36005 ft | 484 kts | 315° |
| 2026-04-24 03:48 | -14.10892 | 17.97596 | 36006 ft | 485 kts | 315° |
| 2026-04-24 03:49 | -14.05870 | 17.92960 | 36005 ft | 485 kts | 316° |
| 2026-04-24 03:49 | -14.00845 | 17.88324 | 36004 ft | 485 kts | 316° |
| 2026-04-24 03:50 | -13.95819 | 17.83690 | 36002 ft | 485 kts | 316° |
| 2026-04-24 03:50 | -13.90795 | 17.79061 | 36005 ft | 485 kts | 316° |
| 2026-04-24 03:51 | -13.85758 | 17.74422 | 36009 ft | 487 kts | 316° |
| 2026-04-24 03:51 | -13.80699 | 17.69768 | 36008 ft | 488 kts | 316° |
| 2026-04-24 03:52 | -13.75668 | 17.65140 | 36007 ft | 488 kts | 316° |
| 2026-04-24 03:52 | -13.70605 | 17.60486 | 36007 ft | 488 kts | 316° |
| 2026-04-24 03:53 | -13.65544 | 17.55837 | 36006 ft | 488 kts | 316° |
| 2026-04-24 03:53 | -13.60482 | 17.51190 | 36007 ft | 488 kts | 316° |
| 2026-04-24 03:54 | -13.55417 | 17.46543 | 36004 ft | 489 kts | 316° |
| 2026-04-24 03:54 | -13.50332 | 17.41881 | 36007 ft | 490 kts | 316° |
| 2026-04-24 03:55 | -13.45239 | 17.37215 | 36008 ft | 490 kts | 316° |
| 2026-04-24 03:55 | -13.40155 | 17.32558 | 36008 ft | 490 kts | 316° |
| 2026-04-24 03:56 | -13.35069 | 17.27903 | 36009 ft | 490 kts | 316° |
| 2026-04-24 03:56 | -13.30015 | 17.23280 | 36002 ft | 490 kts | 316° |
| 2026-04-24 03:57 | -13.24923 | 17.18625 | 35996 ft | 490 kts | 316° |
| 2026-04-24 03:57 | -13.19832 | 17.13972 | 36001 ft | 491 kts | 317° |
| 2026-04-24 03:58 | -13.14734 | 17.09317 | 36003 ft | 491 kts | 317° |
| 2026-04-24 03:58 | -13.09618 | 17.04648 | 36003 ft | 491 kts | 317° |
| 2026-04-24 03:59 | -13.04516 | 16.99995 | 36000 ft | 491 kts | 317° |
| 2026-04-24 03:59 | -12.99410 | 16.95340 | 36001 ft | 491 kts | 317° |
| 2026-04-24 04:00 | -12.94304 | 16.90688 | 36002 ft | 491 kts | 317° |
| 2026-04-24 04:00 | -12.89199 | 16.86040 | 35999 ft | 491 kts | 317° |
| 2026-04-24 04:01 | -12.84091 | 16.81391 | 36009 ft | 491 kts | 317° |
| 2026-04-24 04:01 | -12.79008 | 16.76769 | 36005 ft | 491 kts | 317° |
| 2026-04-24 04:02 | -12.73890 | 16.72116 | 36008 ft | 492 kts | 317° |
| 2026-04-24 04:02 | -12.68773 | 16.67467 | 36006 ft | 492 kts | 317° |
| 2026-04-24 04:03 | -12.63649 | 16.62815 | 36006 ft | 492 kts | 317° |
| 2026-04-24 04:03 | -12.58519 | 16.58159 | 36008 ft | 492 kts | 317° |
| 2026-04-24 04:04 | -12.53398 | 16.53515 | 36012 ft | 492 kts | 317° |
| 2026-04-24 04:04 | -12.48273 | 16.48870 | 36010 ft | 492 kts | 317° |
| 2026-04-24 04:05 | -12.43173 | 16.44250 | 36010 ft | 492 kts | 317° |
| 2026-04-24 04:05 | -12.38051 | 16.39612 | 36000 ft | 492 kts | 317° |
| 2026-04-24 04:06 | -12.32918 | 16.34967 | 36007 ft | 492 kts | 317° |
| 2026-04-24 04:06 | -12.27792 | 16.30331 | 36004 ft | 492 kts | 317° |
| 2026-04-24 04:07 | -12.22650 | 16.25697 | 36004 ft | 493 kts | 318° |
| 2026-04-24 04:07 | -12.17433 | 16.21146 | 36004 ft | 493 kts | 319° |
| 2026-04-24 04:08 | -12.12282 | 16.16598 | 36006 ft | 493 kts | 317° |
| 2026-04-24 04:08 | -12.07142 | 16.11964 | 36003 ft | 493 kts | 317° |
| 2026-04-24 04:09 | -12.02007 | 16.07329 | 36004 ft | 493 kts | 317° |
| 2026-04-24 04:09 | -11.96871 | 16.02691 | 36000 ft | 493 kts | 317° |
| 2026-04-24 04:10 | -11.91739 | 15.98054 | 36003 ft | 493 kts | 318° |
| 2026-04-24 04:10 | -11.86595 | 15.93409 | 35997 ft | 494 kts | 318° |
| 2026-04-24 04:11 | -11.78859 | 15.86428 | 35994 ft | 494 kts | 318° |
| 2026-04-24 04:11 | -11.73741 | 15.81812 | 35995 ft | 494 kts | 318° |
| 2026-04-24 04:12 | -11.68591 | 15.77169 | 35987 ft | 494 kts | 318° |
| 2026-04-24 04:12 | -11.63432 | 15.72521 | 35989 ft | 494 kts | 318° |
| 2026-04-24 04:13 | -11.58275 | 15.67876 | 35990 ft | 495 kts | 318° |
| 2026-04-24 04:13 | -11.53108 | 15.63225 | 35991 ft | 496 kts | 318° |
| 2026-04-24 04:14 | -11.47930 | 15.58567 | 35990 ft | 496 kts | 318° |
| 2026-04-24 04:14 | -11.42757 | 15.53916 | 35991 ft | 496 kts | 318° |
| 2026-04-24 04:15 | -11.37581 | 15.49264 | 35988 ft | 496 kts | 318° |
| 2026-04-24 04:15 | -11.32406 | 15.44615 | 35989 ft | 496 kts | 318° |
| 2026-04-24 04:16 | -11.27267 | 15.40001 | 35984 ft | 496 kts | 318° |
| 2026-04-24 04:16 | -11.22091 | 15.35357 | 35985 ft | 496 kts | 318° |
| 2026-04-24 04:17 | -11.16914 | 15.30714 | 35986 ft | 496 kts | 318° |
| 2026-04-24 04:17 | -11.11741 | 15.26076 | 35987 ft | 496 kts | 318° |
| 2026-04-24 04:18 | -11.06543 | 15.21419 | 35980 ft | 496 kts | 318° |
| 2026-04-24 04:18 | -11.01356 | 15.16773 | 35984 ft | 497 kts | 318° |
| 2026-04-24 04:19 | -10.96161 | 15.12122 | 35987 ft | 497 kts | 318° |
| 2026-04-24 04:19 | -10.91010 | 15.07513 | 35987 ft | 497 kts | 318° |
| 2026-04-24 04:20 | -10.85809 | 15.02863 | 35979 ft | 498 kts | 318° |
| 2026-04-24 04:20 | -10.80599 | 14.98206 | 35977 ft | 498 kts | 318° |
| 2026-04-24 04:21 | -10.75393 | 14.93555 | 35971 ft | 498 kts | 318° |
| 2026-04-24 04:21 | -10.71067 | 14.89691 | 35971 ft | 498 kts | 318° |
| 2026-04-24 04:22 | -10.65003 | 14.84278 | 35959 ft | 499 kts | 318° |
| 2026-04-24 04:22 | -10.60634 | 14.80381 | 35961 ft | 499 kts | 318° |
| 2026-04-24 04:23 | -10.55415 | 14.75726 | 35963 ft | 499 kts | 319° |
| 2026-04-24 04:23 | -10.50190 | 14.71069 | 35957 ft | 500 kts | 319° |
| 2026-04-24 04:24 | -10.44962 | 14.66411 | 35955 ft | 500 kts | 319° |
| 2026-04-24 04:24 | -10.39706 | 14.61729 | 35329 ft | 505 kts | 319° |
| 2026-04-24 04:25 | -10.37076 | 14.59387 | 34743 ft | 500 kts | 319° |
| 2026-04-24 04:25 | -10.34473 | 14.57140 | 34185 ft | 495 kts | 320° |
| 2026-04-24 04:25 | -10.31801 | 14.54931 | 33583 ft | 492 kts | 321° |
| 2026-04-24 04:25 | -10.29153 | 14.52759 | 32962 ft | 488 kts | 320° |
| 2026-04-24 04:26 | -10.26529 | 14.50587 | 32339 ft | 485 kts | 320° |
| 2026-04-24 04:26 | -10.23932 | 14.48421 | 31723 ft | 481 kts | 320° |
| 2026-04-24 04:26 | -10.21358 | 14.46270 | 31136 ft | 477 kts | 320° |
| 2026-04-24 04:26 | -10.18800 | 14.44138 | 30561 ft | 474 kts | 320° |
| 2026-04-24 04:27 | -10.16262 | 14.42026 | 29993 ft | 470 kts | 320° |
| 2026-04-24 04:27 | -10.13741 | 14.39929 | 29322 ft | 467 kts | 320° |
| 2026-04-24 04:27 | -10.11239 | 14.37848 | 28694 ft | 462 kts | 320° |
| 2026-04-24 04:27 | -10.08768 | 14.35793 | 28041 ft | 457 kts | 320° |
| 2026-04-24 04:28 | -10.06321 | 14.33758 | 27419 ft | 451 kts | 320° |
| 2026-04-24 04:28 | -10.03938 | 14.31776 | 26824 ft | 446 kts | 320° |
| 2026-04-24 04:28 | -10.01561 | 14.29801 | 26394 ft | 439 kts | 320° |
| 2026-04-24 04:28 | -9.99199 | 14.27838 | 26044 ft | 435 kts | 320° |
| 2026-04-24 04:29 | -9.96860 | 14.25896 | 25759 ft | 433 kts | 320° |
| 2026-04-24 04:29 | -9.94536 | 14.23965 | 25479 ft | 431 kts | 320° |
| 2026-04-24 04:29 | -9.92215 | 14.22038 | 25200 ft | 429 kts | 320° |
| 2026-04-24 04:29 | -9.89910 | 14.20124 | 24928 ft | 427 kts | 320° |
| 2026-04-24 04:30 | -9.87611 | 14.18215 | 24662 ft | 426 kts | 320° |
| 2026-04-24 04:30 | -9.85320 | 14.16314 | 24403 ft | 424 kts | 320° |
| 2026-04-24 04:30 | -9.83062 | 14.14440 | 24137 ft | 423 kts | 320° |
| 2026-04-24 04:30 | -9.80791 | 14.12556 | 23871 ft | 421 kts | 320° |
| 2026-04-24 04:31 | -9.78527 | 14.10678 | 23601 ft | 420 kts | 320° |
| 2026-04-24 04:31 | -9.76273 | 14.08808 | 23332 ft | 417 kts | 320° |
| 2026-04-24 04:31 | -9.74034 | 14.06950 | 23021 ft | 415 kts | 320° |
| 2026-04-24 04:31 | -9.71808 | 14.05104 | 22714 ft | 412 kts | 321° |
| 2026-04-24 04:32 | -9.69588 | 14.03263 | 22410 ft | 410 kts | 321° |
| 2026-04-24 04:32 | -9.67389 | 14.01440 | 22101 ft | 409 kts | 321° |
| 2026-04-24 04:32 | -9.65188 | 13.99616 | 21804 ft | 407 kts | 321° |
| 2026-04-24 04:32 | -9.62993 | 13.97798 | 21497 ft | 406 kts | 321° |
| 2026-04-24 04:33 | -9.60838 | 13.96012 | 21221 ft | 405 kts | 321° |
| 2026-04-24 04:33 | -9.58657 | 13.94205 | 20934 ft | 403 kts | 321° |
| 2026-04-24 04:33 | -9.56488 | 13.92409 | 20647 ft | 401 kts | 321° |
| 2026-04-24 04:33 | -9.54330 | 13.90622 | 20359 ft | 399 kts | 321° |
| 2026-04-24 04:34 | -9.52185 | 13.88847 | 20076 ft | 397 kts | 321° |
| 2026-04-24 04:34 | -9.50039 | 13.87070 | 19796 ft | 396 kts | 321° |
| 2026-04-24 04:34 | -9.47911 | 13.85309 | 19511 ft | 395 kts | 321° |
| 2026-04-24 04:34 | -9.45790 | 13.83554 | 19242 ft | 393 kts | 321° |
| 2026-04-24 04:35 | -9.43679 | 13.81807 | 18979 ft | 391 kts | 321° |
| 2026-04-24 04:35 | -9.41578 | 13.80069 | 18711 ft | 390 kts | 321° |
| 2026-04-24 04:35 | -9.39482 | 13.78336 | 18441 ft | 388 kts | 321° |
| 2026-04-24 04:35 | -9.37393 | 13.76609 | 18177 ft | 387 kts | 322° |
| 2026-04-24 04:36 | -9.35312 | 13.74889 | 17873 ft | 386 kts | 322° |
| 2026-04-24 04:36 | -9.33239 | 13.73175 | 17558 ft | 384 kts | 322° |
| 2026-04-24 04:36 | -9.31201 | 13.71491 | 17267 ft | 382 kts | 322° |
| 2026-04-24 04:36 | -9.29144 | 13.69791 | 16961 ft | 381 kts | 322° |
| 2026-04-24 04:37 | -9.27099 | 13.68101 | 16586 ft | 373 kts | 322° |
| 2026-04-24 04:37 | -9.25137 | 13.66475 | 16212 ft | 357 kts | 322° |
| 2026-04-24 04:37 | -9.23254 | 13.64913 | 15840 ft | 343 kts | 322° |
| 2026-04-24 04:37 | -9.21436 | 13.63407 | 15478 ft | 331 kts | 322° |
| 2026-04-24 04:38 | -9.19678 | 13.61953 | 15111 ft | 322 kts | 322° |
| 2026-04-24 04:38 | -9.17967 | 13.60540 | 14754 ft | 313 kts | 322° |
| 2026-04-24 04:38 | -9.16298 | 13.59163 | 14401 ft | 306 kts | 322° |
| 2026-04-24 04:38 | -9.14667 | 13.57819 | 14052 ft | 300 kts | 323° |
| 2026-04-24 04:39 | -9.13065 | 13.56499 | 13712 ft | 294 kts | 323° |
| 2026-04-24 04:39 | -9.11490 | 13.55203 | 13309 ft | 289 kts | 323° |
| 2026-04-24 04:39 | -9.09947 | 13.53931 | 12931 ft | 284 kts | 323° |
| 2026-04-24 04:39 | -9.08425 | 13.52678 | 12563 ft | 280 kts | 323° |
| 2026-04-24 04:40 | -9.06926 | 13.51443 | 12201 ft | 276 kts | 323° |
| 2026-04-24 04:40 | -9.05463 | 13.50238 | 11835 ft | 273 kts | 323° |
| 2026-04-24 04:40 | -9.03978 | 13.49015 | 11468 ft | 270 kts | 323° |
| 2026-04-24 04:40 | -9.02547 | 13.47836 | 11115 ft | 267 kts | 323° |
| 2026-04-24 04:41 | -9.01112 | 13.46654 | 10753 ft | 264 kts | 323° |
| 2026-04-24 04:41 | -8.99625 | 13.45597 | 10390 ft | 258 kts | 340° |
| 2026-04-24 04:41 | -8.97907 | 13.45243 | 10019 ft | 250 kts | 2° |
| 2026-04-24 04:41 | -8.96185 | 13.45356 | 9685 ft | 246 kts | 9° |
| 2026-04-24 04:42 | -8.94498 | 13.45596 | 9302 ft | 244 kts | 11° |
| 2026-04-24 04:42 | -8.92828 | 13.45882 | 8928 ft | 242 kts | 12° |
| 2026-04-24 04:42 | -8.91168 | 13.46151 | 8547 ft | 241 kts | 9° |
| 2026-04-24 04:42 | -8.89497 | 13.46301 | 8186 ft | 240 kts | 6° |
| 2026-04-24 04:43 | -8.87832 | 13.46391 | 7827 ft | 239 kts | 3° |
| 2026-04-24 04:43 | -8.86189 | 13.46375 | 7470 ft | 239 kts | 359° |
| 2026-04-24 04:43 | -8.84530 | 13.46265 | 7156 ft | 237 kts | 357° |
| 2026-04-24 04:43 | -8.82933 | 13.46070 | 7021 ft | 230 kts | 351° |
| 2026-04-24 04:44 | -8.81366 | 13.45675 | 6889 ft | 235 kts | 345° |
| 2026-04-24 04:44 | -8.79793 | 13.45167 | 6768 ft | 239 kts | 343° |
| 2026-04-24 04:44 | -8.78274 | 13.44614 | 6596 ft | 229 kts | 339° |
| 2026-04-24 04:44 | -8.76852 | 13.43914 | 6432 ft | 223 kts | 334° |
| 2026-04-24 04:45 | -8.75495 | 13.43160 | 6450 ft | 225 kts | 332° |
| 2026-04-24 04:45 | -8.74165 | 13.42283 | 6217 ft | 231 kts | 327° |
| 2026-04-24 04:45 | -8.72856 | 13.41341 | 5794 ft | 228 kts | 326° |
| 2026-04-24 04:45 | -8.71588 | 13.40406 | 5388 ft | 225 kts | 325° |
| 2026-04-24 04:46 | -8.70448 | 13.39333 | 4813 ft | 228 kts | 306° |
| 2026-04-24 04:46 | -8.69963 | 13.37820 | 4176 ft | 230 kts | 274° |
| 2026-04-24 04:46 | -8.70310 | 13.36263 | 3540 ft | 228 kts | 243° |
| 2026-04-24 04:46 | -8.71356 | 13.35142 | 3049 ft | 218 kts | 215° |
| 2026-04-24 04:47 | -8.72660 | 13.34547 | 2844 ft | 197 kts | 196° |
| 2026-04-24 04:47 | -8.73938 | 13.34304 | 2758 ft | 181 kts | 189° |
| 2026-04-24 04:47 | -8.75185 | 13.34033 | 2786 ft | 186 kts | 195° |
| 2026-04-24 04:47 | -8.76406 | 13.33549 | 2681 ft | 194 kts | 214° |
| 2026-04-24 04:48 | -8.77348 | 13.32586 | 2471 ft | 192 kts | 230° |
| 2026-04-24 04:48 | -8.78207 | 13.31570 | 2247 ft | 188 kts | 228° |
| 2026-04-24 04:48 | -8.79091 | 13.30614 | 1998 ft | 181 kts | 226° |
| 2026-04-24 04:48 | -8.79923 | 13.29721 | 1756 ft | 166 kts | 226° |
| 2026-04-24 04:49 | -8.80656 | 13.28921 | 1452 ft | 146 kts | 226° |
| 2026-04-24 04:49 | -8.81330 | 13.28189 | 1066 ft | 146 kts | 226° |
| 2026-04-24 04:49 | -8.82029 | 13.27414 | 1064 ft | 154 kts | 226° |
| 2026-04-24 04:49 | -8.82789 | 13.26628 | 1047 ft | 150 kts | 226° |
| 2026-04-24 04:50 | -8.83489 | 13.25849 | 862 ft | 152 kts | 226° |
| 2026-04-24 04:50 | -8.84226 | 13.25079 | 653 ft | 151 kts | 224° |
| 2026-04-24 04:50 | -8.84938 | 13.24322 | 419 ft | 147 kts | 225° |
| 2026-04-24 04:50 | -8.85642 | 13.23568 | 272 ft | 146 kts | 225° |
| 2026-04-24 04:51 | -8.86253 | 13.22915 | 263 ft | 107 kts | 227° |
| 2026-04-24 04:51 | -8.86649 | 13.22490 | 264 ft | 50 kts | 227° |
| 2026-04-24 04:51 | -8.86712 | 13.22331 | 264 ft | 14 kts | 272° |
| 2026-04-24 04:51 | -8.86739 | 13.22247 | 263 ft | 13 kts | 232° |
| 2026-04-24 04:52 | -8.86817 | 13.22214 | 262 ft | 14 kts | 155° |
| 2026-04-24 04:52 | -8.86832 | 13.22297 | 267 ft | 14 kts | 52° |
| 2026-04-24 04:52 | -8.86761 | 13.22376 | 264 ft | 17 kts | 47° |
| 2026-04-24 04:52 | -8.86673 | 13.22470 | 264 ft | 21 kts | 46° |
| 2026-04-24 04:53 | -8.86567 | 13.22582 | 265 ft | 23 kts | 47° |
| 2026-04-24 04:53 | -8.86447 | 13.22709 | 264 ft | 27 kts | 47° |
| 2026-04-24 04:53 | -8.86312 | 13.22854 | 263 ft | 30 kts | 46° |
| 2026-04-24 04:53 | -8.86162 | 13.23012 | 262 ft | 32 kts | 46° |
| 2026-04-24 04:54 | -8.86004 | 13.23183 | 263 ft | 34 kts | 47° |
| 2026-04-24 04:54 | -8.85837 | 13.23362 | 265 ft | 35 kts | 47° |
| 2026-04-24 04:54 | -8.85666 | 13.23545 | 265 ft | 35 kts | 46° |
| 2026-04-24 04:54 | -8.85502 | 13.23717 | 264 ft | 30 kts | 46° |
| 2026-04-24 04:55 | -8.85395 | 13.23801 | 264 ft | 14 kts | 359° |
| 2026-04-24 04:55 | -8.85324 | 13.23755 | 264 ft | 12 kts | 318° |
| 2026-04-24 04:55 | -8.85255 | 13.23691 | 264 ft | 15 kts | 317° |
| 2026-04-24 04:55 | -8.85166 | 13.23607 | 263 ft | 20 kts | 317° |
| 2026-04-24 04:56 | -8.85086 | 13.23555 | 266 ft | 8 kts | 338° |
| 2026-04-24 04:56 | -8.85041 | 13.23577 | 264 ft | 8 kts | 60° |
| 2026-04-24 04:56 | -8.85019 | 13.23638 | 266 ft | 11 kts | 70° |
| 2026-04-24 04:56 | -8.84979 | 13.23681 | 264 ft | 5 kts | 359° |
| 2026-04-24 04:57 | -8.84963 | 13.23673 | 264 ft | 3 kts | 320° |
| 2026-04-24 04:57 | -8.84952 | 13.23657 | 265 ft | 3 kts | 303° |
| 2026-04-24 04:57 | -8.84943 | 13.23645 | 264 ft | 0 kts | 306° |